FFL610 KFTW-KICT
Flight info
| Callsign | FFL610 |
|---|---|
| Flight time | N/A |
| Altitude | 33000 |
| Route | NANDR3 IRW HUSKA |
| Aircraft | CL60/M-SBDE1E2E3FGHIJ1J4J5J7M3RWXYZ/LB1V1D1 |
Departure
| Time | 2026-04-26 17:56 |
|---|---|
| Airport | Fort Worth Meacham International Airport (KFTW) |
Arrival
| Time | N/A |
|---|---|
| Airport | Wichita Dwight D. Eisenhower National Airport (KICT) |
| Time | Latitude | Longitude | Altitude | Speed | Heading |
|---|---|---|---|---|---|
| 2026-04-26 17:25 | 32.82054 | -97.35703 | 688 ft | 0 kts | 139° |
| 2026-04-26 17:51 | 32.82053 | -97.35702 | 688 ft | 1 kts | 139° |
| 2026-04-26 17:51 | 32.82029 | -97.35695 | 687 ft | 5 kts | 197° |
| 2026-04-26 17:51 | 32.82016 | -97.35738 | 687 ft | 8 kts | 316° |
| 2026-04-26 17:52 | 32.82063 | -97.35787 | 688 ft | 10 kts | 319° |
| 2026-04-26 17:52 | 32.82126 | -97.35851 | 689 ft | 13 kts | 319° |
| 2026-04-26 17:52 | 32.82202 | -97.35931 | 691 ft | 16 kts | 320° |
| 2026-04-26 17:52 | 32.82295 | -97.35995 | 692 ft | 13 kts | 351° |
| 2026-04-26 17:53 | 32.82400 | -97.36014 | 694 ft | 16 kts | 351° |
| 2026-04-26 17:53 | 32.82524 | -97.36034 | 696 ft | 19 kts | 350° |
| 2026-04-26 17:53 | 32.82664 | -97.36059 | 697 ft | 21 kts | 352° |
| 2026-04-26 17:54 | 32.82928 | -97.36103 | 699 ft | 14 kts | 353° |
| 2026-04-26 17:54 | 32.83002 | -97.36120 | 699 ft | 7 kts | 331° |
| 2026-04-26 17:54 | 32.83016 | -97.36175 | 697 ft | 1 kts | 259° |
| 2026-04-26 17:54 | 32.83012 | -97.36211 | 696 ft | 4 kts | 263° |
| 2026-04-26 17:55 | 32.82999 | -97.36246 | 694 ft | 3 kts | 205° |
| 2026-04-26 17:55 | 32.82984 | -97.36243 | 695 ft | 0 kts | 165° |
| 2026-04-26 17:55 | 32.82983 | -97.36243 | 695 ft | 0 kts | 167° |
| 2026-04-26 17:55 | 32.82932 | -97.36233 | 695 ft | 43 kts | 173° |
| 2026-04-26 17:56 | 32.82246 | -97.36113 | 724 ft | 143 kts | 169° |
| 2026-04-26 17:56 | 32.79920 | -97.35652 | 2268 ft | 188 kts | 168° |
| 2026-04-26 17:57 | 32.77436 | -97.34823 | 2980 ft | 185 kts | 153° |
| 2026-04-26 17:57 | 32.76642 | -97.33626 | 2973 ft | 200 kts | 111° |
| 2026-04-26 17:57 | 32.76811 | -97.31815 | 3548 ft | 249 kts | 65° |
| 2026-04-26 17:57 | 32.78009 | -97.30366 | 5082 ft | 255 kts | 27° |
| 2026-04-26 17:58 | 32.82923 | -97.31825 | 8595 ft | 283 kts | 326° |
| 2026-04-26 17:59 | 32.86873 | -97.31779 | 11273 ft | 312 kts | 22° |
| 2026-04-26 17:59 | 32.88810 | -97.30598 | 12407 ft | 322 kts | 22° |
| 2026-04-26 17:59 | 32.90941 | -97.29356 | 12855 ft | 355 kts | 20° |
| 2026-04-26 17:59 | 32.93278 | -97.28086 | 13465 ft | 377 kts | 19° |
| 2026-04-26 18:00 | 32.95700 | -97.26854 | 14358 ft | 388 kts | 17° |
| 2026-04-26 18:00 | 32.98235 | -97.25645 | 15406 ft | 393 kts | 16° |
| 2026-04-26 18:00 | 33.00792 | -97.24500 | 16410 ft | 398 kts | 14° |
| 2026-04-26 18:00 | 33.03408 | -97.23405 | 17344 ft | 403 kts | 13° |
| 2026-04-26 18:01 | 33.06082 | -97.22362 | 18274 ft | 408 kts | 12° |
| 2026-04-26 18:01 | 33.08816 | -97.21369 | 19204 ft | 412 kts | 11° |
| 2026-04-26 18:01 | 33.11592 | -97.20434 | 20113 ft | 415 kts | 9° |
| 2026-04-26 18:01 | 33.14415 | -97.19556 | 20960 ft | 419 kts | 8° |
| 2026-04-26 18:02 | 33.17261 | -97.18752 | 21765 ft | 423 kts | 7° |
| 2026-04-26 18:02 | 33.19155 | -97.18224 | 22247 ft | 427 kts | 7° |
| 2026-04-26 18:02 | 33.23082 | -97.17124 | 23212 ft | 434 kts | 7° |
| 2026-04-26 18:02 | 33.26039 | -97.16296 | 23944 ft | 439 kts | 7° |
| 2026-04-26 18:03 | 33.29022 | -97.15459 | 24589 ft | 445 kts | 7° |
| 2026-04-26 18:03 | 33.32079 | -97.14602 | 25236 ft | 450 kts | 7° |
| 2026-04-26 18:03 | 33.35156 | -97.13737 | 25898 ft | 454 kts | 6° |
| 2026-04-26 18:03 | 33.38247 | -97.12868 | 26511 ft | 458 kts | 6° |
| 2026-04-26 18:04 | 33.41336 | -97.11999 | 27103 ft | 462 kts | 6° |
| 2026-04-26 18:04 | 33.44531 | -97.11118 | 27649 ft | 464 kts | 4° |
| 2026-04-26 18:04 | 33.47672 | -97.10563 | 28220 ft | 461 kts | 358° |
| 2026-04-26 18:05 | 33.54134 | -97.09763 | 29145 ft | 469 kts | 358° |
| 2026-04-26 18:05 | 33.57386 | -97.09357 | 29617 ft | 472 kts | 358° |
| 2026-04-26 18:05 | 33.60663 | -97.08946 | 30041 ft | 474 kts | 358° |
| 2026-04-26 18:05 | 33.64005 | -97.08525 | 30479 ft | 476 kts | 358° |
| 2026-04-26 18:06 | 33.67279 | -97.08112 | 30863 ft | 477 kts | 358° |
| 2026-04-26 18:06 | 33.70602 | -97.07694 | 31214 ft | 479 kts | 358° |
| 2026-04-26 18:06 | 33.73962 | -97.07269 | 31533 ft | 481 kts | 358° |
| 2026-04-26 18:06 | 33.77306 | -97.06845 | 31860 ft | 482 kts | 358° |
| 2026-04-26 18:07 | 33.78412 | -97.06705 | 31948 ft | 482 kts | 358° |